Time;durP1;ratioP1;P1;durP2;ratioP2;P2;SDS_P1;SDS_P2;PMS_P1;PMS_P2;Temp;Humidity;BMP_temperature;BMP_pressure;BME280_temperature;BME280_humidity;BME280_pressure;Samples;Min_cycle;Max_cycle;Signal;HPM_P1;HPM_P2
2022/12/27 00:00:36;;;;;;;6.23;1.40;;;7.80;98.00;;;;;;5014031;28;20452;-71
2022/12/27 00:03:03;;;;;;;1.20;1.10;;;7.80;98.00;;;;;;5015094;28;20542;-71
2022/12/27 00:05:31;;;;;;;1.57;1.20;;;7.80;98.00;;;;;;5015338;28;20460;-71
2022/12/27 00:07:58;;;;;;;1.60;1.33;;;7.80;98.00;;;;;;5015044;28;20966;-71
2022/12/27 00:10:27;;;;;;;1.30;1.30;;;7.80;98.00;;;;;;5015210;28;20461;-71
2022/12/27 00:12:54;;;;;;;2.10;1.33;;;7.70;98.00;;;;;;5014925;28;20450;-71
2022/12/27 00:15:21;;;;;;;1.20;1.20;;;7.60;98.00;;;;;;5014893;28;20946;-71
2022/12/27 00:17:48;;;;;;;1.30;1.10;;;7.60;98.00;;;;;;5014716;28;20549;-71
2022/12/27 00:20:15;;;;;;;1.50;1.20;;;7.60;98.00;;;;;;5014830;28;20459;-71
2022/12/27 00:22:42;;;;;;;1.20;1.10;;;7.60;98.00;;;;;;5014641;28;20975;-71
2022/12/27 00:25:10;;;;;;;1.20;1.00;;;7.60;98.00;;;;;;5014450;28;20456;-71
2022/12/27 00:27:39;;;;;;;1.50;1.30;;;7.60;98.00;;;;;;5014652;28;20532;-71
2022/12/27 00:30:07;;;;;;;1.20;0.97;;;7.60;98.00;;;;;;5014555;28;20457;-71
2022/12/27 00:32:34;;;;;;;1.20;1.00;;;7.50;98.00;;;;;;5014612;28;20463;-71
2022/12/27 00:35:02;;;;;;;1.20;1.10;;;7.50;98.00;;;;;;5014423;28;20463;-71
2022/12/27 00:37:30;;;;;;;1.20;1.10;;;7.60;98.00;;;;;;5014551;28;20819;-71
2022/12/27 00:39:58;;;;;;;1.30;1.10;;;7.50;98.00;;;;;;4996844;28;20516;-71
2022/12/27 00:42:25;;;;;;;1.57;1.13;;;7.40;98.00;;;;;;5014308;28;20549;-71
2022/12/27 00:44:54;;;;;;;1.33;1.10;;;7.40;98.00;;;;;;5014536;28;20462;-71
2022/12/27 00:47:21;;;;;;;2.03;1.27;;;7.30;98.00;;;;;;5014239;28;20459;-71
2022/12/27 00:49:48;;;;;;;1.30;1.10;;;7.30;98.00;;;;;;5014220;28;20459;-71
2022/12/27 00:52:15;;;;;;;1.30;1.10;;;7.20;98.00;;;;;;5014113;28;20460;-71
2022/12/27 00:54:42;;;;;;;1.30;1.10;;;7.10;98.00;;;;;;5014239;28;20465;-71
2022/12/27 00:57:09;;;;;;;1.20;1.10;;;7.10;98.00;;;;;;5013954;28;20467;-71
2022/12/27 00:59:36;;;;;;;1.30;1.10;;;7.10;98.00;;;;;;5014101;28;20453;-71
2022/12/27 01:02:05;;;;;;;1.20;1.10;;;7.00;98.00;;;;;;5014075;28;20505;-71
2022/12/27 01:04:41;;;;;;;1.73;1.23;;;7.00;98.00;;;;;;5014129;28;20470;-71
2022/12/27 01:07:08;;;;;;;3.00;1.10;;;7.00;98.00;;;;;;5013895;28;20461;-71
2022/12/27 01:09:35;;;;;;;1.20;1.00;;;6.90;98.00;;;;;;5014221;28;20586;-71
2022/12/27 01:12:02;;;;;;;1.77;1.23;;;6.80;98.00;;;;;;5013798;28;20939;-71
2022/12/27 01:14:29;;;;;;;1.20;1.10;;;6.80;98.00;;;;;;5013702;28;20881;-71
2022/12/27 01:16:57;;;;;;;1.20;1.10;;;6.80;98.00;;;;;;5013343;28;20453;-71
2022/12/27 01:19:25;;;;;;;1.50;1.30;;;6.80;98.00;;;;;;5012957;28;20464;-71
2022/12/27 01:21:54;;;;;;;1.17;1.07;;;6.90;98.00;;;;;;5012926;28;20459;-71
2022/12/27 01:24:21;;;;;;;1.30;1.10;;;6.90;98.00;;;;;;5013106;28;20494;-71
2022/12/27 01:26:48;;;;;;;1.80;1.17;;;6.70;98.00;;;;;;5013603;28;20465;-71
2022/12/27 01:29:15;;;;;;;2.90;1.20;;;6.60;98.00;;;;;;5013458;28;20842;-71
2022/12/27 01:31:42;;;;;;;1.17;1.00;;;6.50;98.00;;;;;;5013550;28;20955;-71
2022/12/27 01:34:09;;;;;;;1.20;1.00;;;6.50;98.00;;;;;;5013342;28;20460;-71
2022/12/27 01:36:37;;;;;;;1.20;1.00;;;6.40;98.00;;;;;;5013462;28;20512;-71
2022/12/27 01:39:04;;;;;;;1.30;1.20;;;6.40;98.00;;;;;;5013431;28;20453;-71
2022/12/27 01:44:49;;;;;;;1.20;1.00;;;6.40;98.00;;;;;;5013204;28;20442;-70
2022/12/27 01:47:22;;;;;;;1.30;1.20;;;6.30;98.00;;;;;;5013063;28;20463;-71
2022/12/27 01:50:03;;;;;;;3.23;1.40;;;6.30;98.00;;;;;;5013117;28;20467;-71
2022/12/27 01:52:36;;;;;;;1.20;1.00;;;6.30;98.00;;;;;;5013034;28;20459;-71
2022/12/27 01:55:09;;;;;;;1.20;1.10;;;6.40;98.00;;;;;;5013164;28;20468;-71
2022/12/27 01:57:36;;;;;;;1.40;1.07;;;6.20;98.00;;;;;;5012799;28;20468;-71
2022/12/27 02:00:05;;;;;;;1.20;1.10;;;6.10;98.00;;;;;;5013064;28;20464;-71
2022/12/27 02:02:32;;;;;;;2.80;1.27;;;6.00;98.00;;;;;;5012819;28;20488;-71
2022/12/27 02:05:00;;;;;;;1.73;1.27;;;5.90;98.00;;;;;;5012829;28;20459;-71
2022/12/27 02:07:38;;;;;;;1.50;1.10;;;5.80;98.00;;;;;;5012916;28;20468;-71
2022/12/27 02:10:06;;;;;;;1.20;1.00;;;5.70;98.00;;;;;;5012748;28;20463;-71
2022/12/27 02:12:34;;;;;;;1.30;1.10;;;5.80;98.00;;;;;;5013169;28;20453;-71
2022/12/27 02:15:03;;;;;;;1.30;1.10;;;5.60;98.00;;;;;;5013086;28;20833;-71
2022/12/27 02:17:32;;;;;;;1.20;1.00;;;5.60;98.00;;;;;;5013015;28;21061;-71
2022/12/27 02:20:09;;;;;;;1.50;1.20;;;5.70;98.00;;;;;;5012507;28;20461;-71
2022/12/27 02:26:24;;;;;;;1.20;1.00;;;5.60;98.00;;;;;;4995062;28;20796;-71
2022/12/27 02:29:14;;;;;;;1.20;1.00;;;5.80;98.00;;;;;;5012449;28;20462;-71
2022/12/27 02:31:48;;;;;;;1.50;1.20;;;5.60;98.00;;;;;;4984487;28;20823;-71
2022/12/27 02:34:22;;;;;;;1.60;1.20;;;5.60;98.00;;;;;;5012490;28;20456;-71
2022/12/27 02:36:52;;;;;;;1.20;1.00;;;5.50;98.00;;;;;;4995238;28;20467;-71
2022/12/27 02:39:20;;;;;;;1.50;1.30;;;5.40;98.00;;;;;;5012032;28;20511;-71
2022/12/27 02:53:18;;;;;;;1.20;1.10;;;5.00;98.00;;;;;;4993281;28;20453;-71
2022/12/27 02:58:50;;;;;;;1.10;1.00;;;4.90;98.00;;;;;;5012278;28;20543;-71
2022/12/27 03:04:36;;;;;;;1.20;1.00;;;4.90;98.00;;;;;;5011995;28;20503;-71
2022/12/27 03:07:19;;;;;;;1.40;1.10;;;4.80;98.00;;;;;;5012333;28;20960;-71
2022/12/27 03:15:56;;;;;;;1.10;1.00;;;4.90;98.00;;;;;;4951723;29;20528;-71
2022/12/27 03:18:37;;;;;;;1.30;1.13;;;4.90;98.00;;;;;;5001801;28;20927;-71
2022/12/27 03:26:46;;;;;;;1.57;1.10;;;5.10;98.00;;;;;;5012053;28;20440;-71
2022/12/27 03:34:54;;;;;;;1.20;1.20;;;5.30;98.00;;;;;;5014892;28;20443;-71
2022/12/27 03:40:15;;;;;;;1.10;0.90;;;5.20;98.00;;;;;;5015682;28;20818;-71
2022/12/27 03:43:11;;;;;;;1.50;1.40;;;5.20;98.00;;;;;;5015376;28;20488;-71
2022/12/27 03:49:08;;;;;;;1.90;1.43;;;5.20;98.00;;;;;;5015317;28;20489;-71
2022/12/27 03:51:40;;;;;;;1.20;1.00;;;5.10;98.00;;;;;;5013162;28;20591;-71
2022/12/27 03:54:25;;;;;;;1.40;1.10;;;5.20;98.00;;;;;;5015387;28;20455;-71
2022/12/27 03:56:56;;;;;;;1.70;1.10;;;5.10;98.00;;;;;;4997866;28;20474;-71
2022/12/27 03:59:24;;;;;;;10.50;1.50;;;4.90;98.00;;;;;;5015432;28;20465;-71
2022/12/27 04:01:54;;;;;;;1.10;1.00;;;4.90;98.00;;;;;;5015764;28;20513;-71
2022/12/27 04:04:21;;;;;;;1.20;1.10;;;4.70;98.00;;;;;;5015720;28;20517;-71
2022/12/27 04:06:49;;;;;;;1.20;1.10;;;4.80;98.00;;;;;;5015943;28;20515;-71
2022/12/27 04:36:47;;;;;;;2.97;1.30;;;4.40;98.00;;;;;;5014670;28;20473;-71
2022/12/27 04:39:15;;;;;;;1.17;1.00;;;4.50;98.00;;;;;;5014482;28;20462;-71
2022/12/27 04:55:31;;;;;;;1.27;1.10;;;4.50;98.00;;;;;;5014127;28;20444;-71
2022/12/27 04:57:58;;;;;;;1.60;1.10;;;4.30;98.00;;;;;;5014414;28;20465;-71
2022/12/27 05:03:17;;;;;;;1.30;1.10;;;4.20;98.00;;;;;;5014028;28;21075;-71
2022/12/27 05:05:46;;;;;;;1.30;1.20;;;4.20;98.00;;;;;;5014182;28;20458;-71
2022/12/27 05:13:59;;;;;;;1.83;1.23;;;4.20;98.00;;;;;;5014044;28;20957;-71
2022/12/27 05:16:27;;;;;;;1.20;1.10;;;4.20;98.00;;;;;;5013650;28;20454;-71
2022/12/27 05:18:54;;;;;;;1.17;1.03;;;4.20;98.00;;;;;;5013757;28;20489;-71
2022/12/27 05:21:21;;;;;;;1.50;1.10;;;4.20;98.00;;;;;;5013552;28;20489;-71
2022/12/27 05:26:37;;;;;;;1.20;1.13;;;4.20;98.00;;;;;;5013522;28;20453;-71
2022/12/27 05:29:04;;;;;;;1.10;1.00;;;4.30;98.00;;;;;;5013404;28;20462;-71
2022/12/27 05:31:32;;;;;;;1.13;1.00;;;4.20;98.00;;;;;;5013332;28;20511;-71
2022/12/27 05:33:59;;;;;;;1.30;1.17;;;4.10;98.00;;;;;;5013500;28;21113;-71
2022/12/27 05:36:27;;;;;;;1.20;1.00;;;3.90;98.00;;;;;;5013447;28;20463;-71
2022/12/27 05:38:55;;;;;;;1.73;1.00;;;3.90;98.00;;;;;;5013390;28;20458;-71
2022/12/27 05:41:22;;;;;;;1.20;1.00;;;3.90;98.00;;;;;;5013291;28;20465;-71
2022/12/27 05:43:51;;;;;;;1.40;1.20;;;3.90;98.00;;;;;;5013306;28;20546;-71
2022/12/27 05:46:22;;;;;;;1.20;1.00;;;3.70;98.00;;;;;;5013184;28;20501;-71
2022/12/27 05:48:49;;;;;;;1.67;1.30;;;3.70;98.00;;;;;;5013395;28;20845;-71
2022/12/27 05:51:18;;;;;;;1.20;1.00;;;3.90;98.00;;;;;;5013256;28;21180;-71
2022/12/27 05:53:46;;;;;;;2.07;1.33;;;3.80;98.00;;;;;;5013061;28;20456;-71
2022/12/27 05:56:15;;;;;;;1.67;1.10;;;3.60;98.00;;;;;;5012800;28;20492;-71
2022/12/27 05:58:43;;;;;;;1.27;1.17;;;3.60;98.00;;;;;;5012382;28;20492;-71
2022/12/27 06:01:14;;;;;;;1.50;1.20;;;3.50;98.00;;;;;;5013095;28;20462;-71
2022/12/27 06:03:42;;;;;;;1.40;1.20;;;3.40;98.00;;;;;;5013060;28;20489;-71
2022/12/27 06:06:09;;;;;;;1.40;1.20;;;3.40;98.00;;;;;;5013086;28;20469;-71
2022/12/27 06:08:37;;;;;;;3.27;1.13;;;3.40;98.00;;;;;;5013008;28;20872;-71
2022/12/27 06:11:08;;;;;;;1.30;1.20;;;3.40;98.00;;;;;;5012701;28;20461;-71
2022/12/27 06:13:36;;;;;;;1.17;1.00;;;3.30;98.00;;;;;;5012733;28;20469;-71
2022/12/27 06:16:05;;;;;;;1.10;1.00;;;3.40;98.00;;;;;;5012838;28;20469;-71
2022/12/27 06:18:35;;;;;;;1.27;1.10;;;3.40;98.00;;;;;;5012653;28;20943;-71
2022/12/27 06:21:04;;;;;;;1.40;1.13;;;3.40;98.00;;;;;;5012555;28;20931;-71
2022/12/27 06:23:32;;;;;;;1.20;1.00;;;3.40;98.00;;;;;;5012405;28;20538;-71
2022/12/27 06:26:04;;;;;;;2.60;1.30;;;3.40;98.00;;;;;;5012454;28;20504;-71
2022/12/27 06:28:31;;;;;;;1.13;1.00;;;3.40;98.00;;;;;;5012541;28;20483;-71
2022/12/27 06:31:01;;;;;;;1.30;1.10;;;3.20;98.00;;;;;;5012253;28;20526;-71
2022/12/27 06:33:29;;;;;;;1.20;1.10;;;3.20;98.00;;;;;;5012352;28;20488;-71
2022/12/27 06:35:58;;;;;;;2.53;1.60;;;3.20;98.00;;;;;;5012336;28;20460;-71
2022/12/27 06:38:25;;;;;;;2.00;1.60;;;3.20;98.00;;;;;;5012303;28;20463;-71
2022/12/27 06:40:52;;;;;;;1.30;1.10;;;3.10;98.00;;;;;;5011664;28;20819;-71
2022/12/27 06:43:19;;;;;;;1.60;1.13;;;3.20;98.00;;;;;;5011493;28;20583;-70
2022/12/27 06:45:56;;;;;;;2.60;1.40;;;3.20;98.00;;;;;;5011618;28;20468;-71
2022/12/27 06:48:23;;;;;;;2.30;1.10;;;3.10;98.00;;;;;;5012567;28;20834;-71
2022/12/27 06:50:50;;;;;;;1.20;1.10;;;3.10;98.00;;;;;;5012418;28;20462;-71
2022/12/27 06:53:20;;;;;;;1.30;1.10;;;3.30;98.00;;;;;;5012348;28;20478;-71
2022/12/27 06:55:47;;;;;;;2.50;1.40;;;3.30;98.00;;;;;;5012300;28;20460;-71
2022/12/27 06:58:14;;;;;;;2.17;1.40;;;3.30;98.00;;;;;;5012185;28;20970;-70
2022/12/27 07:00:42;;;;;;;1.40;1.17;;;3.20;98.00;;;;;;5012260;28;20452;-69
2022/12/27 07:03:09;;;;;;;1.50;1.10;;;3.20;98.00;;;;;;4995048;28;20460;-68
2022/12/27 07:05:37;;;;;;;1.60;1.10;;;3.00;98.00;;;;;;5012636;28;20452;-69
2022/12/27 07:08:05;;;;;;;4.70;1.20;;;3.00;98.00;;;;;;5012389;28;20461;-69
2022/12/27 07:10:34;;;;;;;1.70;1.53;;;3.00;98.00;;;;;;4999007;28;20482;-69
2022/12/27 07:13:01;;;;;;;1.20;1.13;;;3.00;98.00;;;;;;5015718;28;20460;-69
2022/12/27 07:15:29;;;;;;;1.20;1.10;;;3.00;98.00;;;;;;5016177;28;20461;-69
2022/12/27 07:17:56;;;;;;;1.63;1.27;;;3.00;98.00;;;;;;4998460;28;20467;-69
2022/12/27 07:20:23;;;;;;;1.30;1.30;;;3.00;98.00;;;;;;5015870;28;20459;-69
2022/12/27 07:22:50;;;;;;;1.30;1.20;;;3.00;98.00;;;;;;5015676;28;20872;-68
2022/12/27 07:25:18;;;;;;;1.60;1.17;;;3.00;98.00;;;;;;5015432;28;20494;-68
2022/12/27 07:27:46;;;;;;;2.30;1.53;;;3.10;98.00;;;;;;5015513;28;20459;-69
2022/12/27 07:30:13;;;;;;;1.93;1.40;;;3.00;98.00;;;;;;5015792;28;20463;-69
2022/12/27 07:32:42;;;;;;;1.30;1.20;;;2.90;98.00;;;;;;5015717;28;20466;-68
2022/12/27 07:35:10;;;;;;;1.57;1.30;;;3.00;98.00;;;;;;5015583;28;20467;-68
2022/12/27 07:37:37;;;;;;;1.13;1.07;;;3.00;98.00;;;;;;5015683;28;20482;-67
2022/12/27 07:40:05;;;;;;;2.90;1.40;;;2.90;98.00;;;;;;5015371;28;20519;-69
2022/12/27 07:42:32;;;;;;;1.20;1.10;;;2.90;98.00;;;;;;5015593;28;20452;-68
2022/12/27 07:45:00;;;;;;;2.47;1.40;;;2.70;98.00;;;;;;5015541;28;20845;-68
2022/12/27 07:47:27;;;;;;;1.40;1.20;;;2.80;98.00;;;;;;4998088;28;20460;-68
2022/12/27 07:49:55;;;;;;;3.13;2.13;;;2.90;98.00;;;;;;5015487;28;20946;-68
2022/12/27 07:52:21;;;;;;;1.40;1.30;;;3.00;98.00;;;;;;5015589;28;20942;-68
2022/12/27 07:54:49;;;;;;;1.20;1.10;;;2.80;98.00;;;;;;5015376;28;20460;-68
2022/12/27 07:57:16;;;;;;;3.83;1.67;;;2.90;98.00;;;;;;5015399;28;20474;-68
2022/12/27 07:59:43;;;;;;;2.47;1.60;;;3.00;98.00;;;;;;5015173;28;20993;-67
2022/12/27 08:02:12;;;;;;;1.50;1.50;;;3.10;98.00;;;;;;5015353;28;20456;-69
2022/12/27 08:04:39;;;;;;;2.00;1.37;;;3.10;98.00;;;;;;4998120;28;20519;-69
2022/12/27 08:07:09;;;;;;;3.43;2.07;;;3.10;98.00;;;;;;4997989;28;20458;-68
2022/12/27 08:09:39;;;;;;;3.20;1.60;;;3.00;98.00;;;;;;5015491;28;20482;-69
2022/12/27 08:12:14;;;;;;;1.70;1.53;;;3.00;98.00;;;;;;5015268;28;20468;-68
2022/12/27 08:14:42;;;;;;;2.30;1.40;;;3.10;98.00;;;;;;5014884;28;20455;-68
2022/12/27 08:17:19;;;;;;;1.20;1.13;;;3.30;98.00;;;;;;5014752;28;20533;-69
2022/12/27 08:19:46;;;;;;;1.40;1.17;;;3.20;98.00;;;;;;5014160;28;20930;-68
2022/12/27 08:22:14;;;;;;;1.60;1.40;;;3.20;98.00;;;;;;5014490;28;20540;-67
2022/12/27 08:24:42;;;;;;;1.30;1.10;;;3.30;98.00;;;;;;5014639;28;20484;-68
2022/12/27 08:27:09;;;;;;;3.43;2.57;;;3.30;98.00;;;;;;5014517;28;20464;-68
2022/12/27 08:29:37;;;;;;;3.63;2.27;;;3.20;98.00;;;;;;5014704;28;20462;-68
2022/12/27 08:32:05;;;;;;;15.13;2.40;;;3.30;98.00;;;;;;5014268;28;20895;-69
2022/12/27 08:34:34;;;;;;;1.93;1.77;;;3.30;98.00;;;;;;5014503;28;20463;-68
2022/12/27 08:37:01;;;;;;;4.43;2.23;;;3.30;98.00;;;;;;5014371;28;20459;-68
2022/12/27 08:39:29;;;;;;;3.00;1.90;;;3.30;98.00;;;;;;4996910;28;20522;-68
2022/12/27 08:41:56;;;;;;;6.80;2.03;;;3.40;98.00;;;;;;5014356;28;20878;-68
2022/12/27 08:44:23;;;;;;;8.13;2.20;;;3.40;98.00;;;;;;5014251;28;21044;-68
2022/12/27 08:46:50;;;;;;;2.27;1.50;;;3.60;98.00;;;;;;5014027;28;20456;-69
2022/12/27 08:49:17;;;;;;;2.40;1.60;;;3.70;98.00;;;;;;5013709;28;20527;-68
2022/12/27 08:51:48;;;;;;;2.07;1.60;;;3.80;98.00;;;;;;5013557;28;20460;-68
2022/12/27 08:54:15;;;;;;;1.87;1.40;;;3.80;98.00;;;;;;5013641;28;20469;-68
2022/12/27 08:56:42;;;;;;;1.20;1.10;;;3.80;98.00;;;;;;5013255;28;20471;-68
2022/12/27 08:59:09;;;;;;;1.30;1.20;;;3.80;98.00;;;;;;5013439;28;20870;-67
2022/12/27 09:01:36;;;;;;;1.87;1.23;;;3.90;98.00;;;;;;5013327;28;20461;-68
2022/12/27 09:04:03;;;;;;;2.53;1.90;;;3.90;98.00;;;;;;5013248;28;20898;-69
2022/12/27 09:06:30;;;;;;;1.77;1.37;;;3.90;98.00;;;;;;5013401;28;20520;-68
2022/12/27 09:09:00;;;;;;;1.87;1.40;;;4.00;98.00;;;;;;5013287;28;20464;-68
2022/12/27 09:11:28;;;;;;;2.13;1.33;;;3.90;98.00;;;;;;5013392;28;20889;-68
2022/12/27 09:13:59;;;;;;;1.87;1.40;;;4.00;98.00;;;;;;5013303;28;20472;-67
2022/12/27 09:16:28;;;;;;;2.50;1.40;;;4.00;98.00;;;;;;5013228;28;20450;-68
2022/12/27 09:18:56;;;;;;;2.07;1.40;;;4.00;98.00;;;;;;5013074;28;20942;-68
2022/12/27 09:21:26;;;;;;;1.30;1.30;;;4.20;98.00;;;;;;5012960;28;20465;-68
2022/12/27 09:23:54;;;;;;;1.30;1.27;;;4.30;98.00;;;;;;5012676;28;20463;-68
2022/12/27 09:26:25;;;;;;;1.47;1.27;;;4.30;98.00;;;;;;5012800;28;21006;-69
2022/12/27 09:28:53;;;;;;;2.27;1.70;;;4.30;98.00;;;;;;5012982;28;20488;-69
2022/12/27 09:31:21;;;;;;;1.83;1.70;;;4.30;98.00;;;;;;5012567;28;20474;-68
2022/12/27 09:33:49;;;;;;;4.63;1.83;;;4.50;98.00;;;;;;5012663;28;20471;-68
2022/12/27 09:36:18;;;;;;;3.57;2.17;;;4.60;98.00;;;;;;5012846;28;20524;-68
2022/12/27 09:38:46;;;;;;;6.53;1.80;;;4.60;98.00;;;;;;5012707;28;20555;-68
2022/12/27 09:41:20;;;;;;;3.70;1.57;;;4.70;98.00;;;;;;5012549;28;20532;-68
2022/12/27 09:43:58;;;;;;;1.73;1.30;;;4.70;98.00;;;;;;5013096;28;20841;-68
2022/12/27 09:46:30;;;;;;;1.20;1.20;;;4.90;98.00;;;;;;5012793;28;20516;-70
2022/12/27 09:48:57;;;;;;;2.00;1.53;;;5.00;98.00;;;;;;5012895;28;20459;-67
2022/12/27 09:51:31;;;;;;;1.77;1.40;;;5.00;98.00;;;;;;5011983;28;20518;-68
2022/12/27 09:54:04;;;;;;;4.43;2.13;;;5.10;98.00;;;;;;5012500;28;20983;-67
2022/12/27 09:56:34;;;;;;;2.10;1.50;;;5.10;98.00;;;;;;5012385;28;20473;-69
2022/12/27 09:59:09;;;;;;;2.33;1.80;;;5.10;98.00;;;;;;5012300;28;20457;-68
2022/12/27 10:01:39;;;;;;;2.60;1.70;;;5.10;98.00;;;;;;5012356;28;20466;-68
2022/12/27 10:04:12;;;;;;;1.73;1.67;;;5.20;98.00;;;;;;5012058;28;20546;-68
2022/12/27 10:07:06;;;;;;;3.50;1.87;;;5.30;98.00;;;;;;5012400;28;20553;-68
2022/12/27 10:10:01;;;;;;;5.20;1.50;;;5.30;98.00;;;;;;5012351;28;20491;-68
2022/12/27 10:13:03;;;;;;;2.83;2.37;;;5.50;98.00;;;;;;4994103;28;20462;-68
2022/12/27 10:15:48;;;;;;;2.93;1.87;;;5.50;98.00;;;;;;5012488;28;20459;-68
2022/12/27 10:18:26;;;;;;;2.17;1.53;;;5.70;98.00;;;;;;5012060;28;20946;-67
2022/12/27 10:21:01;;;;;;;1.70;1.47;;;5.90;98.00;;;;;;5012029;28;20506;-68
2022/12/27 10:23:32;;;;;;;1.80;1.47;;;5.90;98.00;;;;;;5011881;28;20471;-68
2022/12/27 10:26:01;;;;;;;2.43;1.80;;;6.10;98.00;;;;;;5011938;28;20706;-68
2022/12/27 10:28:37;;;;;;;3.17;2.00;;;6.20;98.00;;;;;;5011846;28;20465;-67
2022/12/27 10:31:06;;;;;;;4.80;1.80;;;6.10;98.00;;;;;;5011758;28;20466;-68
2022/12/27 10:33:35;;;;;;;2.23;1.50;;;6.10;98.00;;;;;;5011756;28;20459;-68
2022/12/27 10:36:09;;;;;;;3.27;1.40;;;6.20;98.00;;;;;;5011677;28;20456;-68
2022/12/27 10:38:37;;;;;;;1.20;1.20;;;6.20;98.00;;;;;;5011601;28;20462;-68
2022/12/27 10:41:19;;;;;;;1.77;1.57;;;6.30;98.00;;;;;;5011757;28;20505;-68
2022/12/27 10:43:55;;;;;;;1.20;1.10;;;6.40;98.00;;;;;;5011062;28;21041;-67
2022/12/27 10:46:26;;;;;;;1.63;1.47;;;6.50;98.00;;;;;;5011437;28;20483;-68
2022/12/27 10:48:58;;;;;;;1.53;1.40;;;6.60;98.00;;;;;;5011641;28;20470;-68
2022/12/27 10:51:27;;;;;;;2.03;1.60;;;6.80;98.00;;;;;;5011902;28;20452;-68
2022/12/27 10:54:00;;;;;;;1.60;1.20;;;7.00;98.00;;;;;;5011471;28;20888;-68
2022/12/27 10:56:29;;;;;;;1.70;1.33;;;7.00;98.00;;;;;;5011568;28;20901;-68
2022/12/27 10:59:07;;;;;;;1.30;1.10;;;7.10;98.00;;;;;;5011441;28;20459;-68
2022/12/27 11:01:36;;;;;;;1.33;1.20;;;7.20;98.00;;;;;;5011471;28;20456;-68
2022/12/27 11:04:11;;;;;;;2.30;1.40;;;7.30;98.00;;;;;;5011421;28;20462;-68
2022/12/27 11:06:39;;;;;;;2.10;1.47;;;7.30;98.00;;;;;;5011548;28;20886;-69
2022/12/27 11:09:35;;;;;;;1.90;1.60;;;7.40;98.00;;;;;;5011327;28;20514;-69
2022/12/27 11:12:22;;;;;;;1.30;1.20;;;7.50;98.00;;;;;;4987859;28;20515;-68
2022/12/27 11:14:58;;;;;;;1.90;1.20;;;7.70;98.00;;;;;;5011309;28;20460;-68
2022/12/27 11:17:45;;;;;;;1.90;1.30;;;7.80;98.00;;;;;;5011379;28;20692;-68
2022/12/27 11:20:21;;;;;;;1.57;1.23;;;7.80;98.00;;;;;;5011171;28;20456;-68
2022/12/27 11:22:52;;;;;;;3.27;1.23;;;7.80;98.00;;;;;;5011426;28;20550;-68
2022/12/27 11:25:20;;;;;;;1.50;1.20;;;7.90;98.00;;;;;;5011110;28;20563;-69
2022/12/27 11:27:50;;;;;;;1.47;1.20;;;8.00;98.00;;;;;;5011354;28;20465;-68
2022/12/27 11:30:23;;;;;;;1.53;1.20;;;8.10;98.00;;;;;;5011110;28;20465;-68
2022/12/27 11:32:52;;;;;;;1.30;1.13;;;8.20;98.00;;;;;;5011266;28;20485;-68
2022/12/27 11:35:20;;;;;;;1.97;1.10;;;8.40;98.00;;;;;;5011091;28;20469;-68
2022/12/27 11:37:48;;;;;;;1.30;1.30;;;8.50;98.00;;;;;;5011074;28;20449;-68
2022/12/27 11:40:25;;;;;;;1.30;1.10;;;8.60;98.00;;;;;;5010984;28;20546;-68
2022/12/27 11:42:58;;;;;;;2.50;1.50;;;8.80;98.00;;;;;;5011129;28;20458;-68
2022/12/27 11:45:33;;;;;;;2.70;1.33;;;8.70;98.00;;;;;;5011152;28;20861;-69
2022/12/27 11:48:06;;;;;;;1.37;1.10;;;8.60;98.00;;;;;;5011017;28;20458;-68
2022/12/27 11:50:47;;;;;;;1.20;1.00;;;8.60;98.00;;;;;;5011097;28;20458;-68
2022/12/27 11:54:09;;;;;;;1.57;1.33;;;8.70;98.00;;;;;;5010867;28;20454;-68
2022/12/27 11:56:39;;;;;;;1.50;1.10;;;8.70;98.00;;;;;;4930843;29;20486;-69
2022/12/27 11:59:39;;;;;;;1.20;1.10;;;8.80;98.00;;;;;;4934592;29;20518;-68
2022/12/27 12:02:58;;;;;;;3.60;1.40;;;8.70;98.00;;;;;;4989930;28;20462;-68
2022/12/27 12:05:50;;;;;;;2.30;1.43;;;8.50;98.00;;;;;;5014650;28;20538;-69
2022/12/27 12:08:37;;;;;;;1.30;1.10;;;8.50;98.00;;;;;;5009414;28;20463;-69
2022/12/27 12:11:15;;;;;;;3.20;1.40;;;8.60;98.00;;;;;;5007452;28;20806;-68
2022/12/27 12:14:17;;;;;;;1.43;1.30;;;8.60;98.00;;;;;;5014648;28;20519;-68
2022/12/27 12:16:57;;;;;;;3.73;1.60;;;8.80;98.00;;;;;;5001418;28;20453;-69
2022/12/27 12:19:40;;;;;;;1.63;1.50;;;8.90;98.00;;;;;;5014132;28;20457;-69
2022/12/27 12:22:26;;;;;;;1.57;1.30;;;9.20;98.00;;;;;;5014198;28;20859;-68
2022/12/27 12:25:22;;;;;;;1.50;1.33;;;9.60;98.00;;;;;;5014195;28;20515;-68
2022/12/27 12:28:08;;;;;;;2.57;1.30;;;9.60;98.00;;;;;;5013925;28;20476;-69
2022/12/27 12:30:51;;;;;;;2.43;1.30;;;9.80;98.00;;;;;;5014093;28;20460;-68
2022/12/27 12:33:52;;;;;;;1.30;1.20;;;9.90;98.00;;;;;;5014055;28;20942;-68
2022/12/27 12:36:40;;;;;;;1.30;1.10;;;9.90;98.00;;;;;;5011835;28;20475;-70
2022/12/27 12:39:23;;;;;;;1.50;1.20;;;9.80;98.00;;;;;;5013830;28;20467;-68
2022/12/27 12:42:09;;;;;;;1.80;1.30;;;9.80;98.00;;;;;;5014039;28;20466;-69
2022/12/27 12:45:05;;;;;;;1.50;1.20;;;9.80;98.00;;;;;;5013722;28;21018;-68
2022/12/27 12:48:05;;;;;;;1.97;1.53;;;9.90;98.00;;;;;;5013855;28;20504;-69
2022/12/27 12:50:49;;;;;;;1.43;1.30;;;9.80;98.00;;;;;;5013474;28;20463;-69
2022/12/27 12:53:34;;;;;;;1.97;1.40;;;9.70;98.00;;;;;;5013582;28;20749;-69
2022/12/27 12:56:20;;;;;;;1.73;1.30;;;9.60;98.00;;;;;;5013462;28;20844;-69
2022/12/27 12:59:01;;;;;;;1.80;1.60;;;9.50;98.00;;;;;;5013600;28;20521;-69
2022/12/27 13:01:44;;;;;;;2.40;1.47;;;9.50;98.00;;;;;;5013327;28;20458;-68
2022/12/27 13:04:36;;;;;;;1.40;1.40;;;9.50;98.00;;;;;;5013371;28;20482;-68
2022/12/27 13:07:23;;;;;;;1.30;1.30;;;9.40;98.00;;;;;;5013000;28;20902;-69
2022/12/27 13:10:14;;;;;;;1.40;1.23;;;9.60;98.00;;;;;;5013620;28;20485;-68
2022/12/27 13:12:50;;;;;;;2.17;1.30;;;9.60;98.00;;;;;;5013503;28;20951;-68
2022/12/27 13:15:38;;;;;;;5.40;1.30;;;9.50;98.00;;;;;;5013164;28;20466;-68
2022/12/27 13:18:18;;;;;;;2.03;1.37;;;9.50;98.00;;;;;;5010367;28;20488;-69
2022/12/27 13:21:05;;;;;;;1.60;1.17;;;9.50;98.00;;;;;;5013160;28;20466;-69
2022/12/27 13:23:43;;;;;;;2.03;1.43;;;9.50;98.00;;;;;;5013016;28;20547;-68
2022/12/27 13:26:19;;;;;;;1.30;1.10;;;9.50;98.00;;;;;;5012791;28;20485;-69
2022/12/27 13:29:01;;;;;;;1.20;1.13;;;9.50;98.00;;;;;;5013221;28;20816;-68
2022/12/27 13:31:39;;;;;;;2.80;1.37;;;9.50;98.00;;;;;;5012854;28;20463;-69
2022/12/27 13:34:23;;;;;;;1.33;1.30;;;9.50;98.00;;;;;;5012737;28;20462;-69
2022/12/27 13:37:11;;;;;;;2.07;1.30;;;9.60;98.00;;;;;;5012939;28;20521;-68
2022/12/27 13:39:49;;;;;;;2.67;1.50;;;9.50;98.00;;;;;;5012709;28;20561;-68
2022/12/27 13:42:48;;;;;;;2.70;1.20;;;9.50;98.00;;;;;;5012778;28;20465;-68
2022/12/27 13:45:32;;;;;;;5.00;1.37;;;9.50;98.00;;;;;;4999245;28;20516;-69
2022/12/27 13:48:13;;;;;;;1.40;1.23;;;9.50;98.00;;;;;;5012691;28;20877;-69
2022/12/27 13:51:12;;;;;;;1.60;1.40;;;9.40;98.00;;;;;;5012756;28;20983;-68
2022/12/27 13:54:40;;;;;;;2.03;1.30;;;9.20;98.00;;;;;;5012452;28;20515;-69
2022/12/27 13:57:19;;;;;;;2.07;1.40;;;9.20;98.00;;;;;;5012932;28;20470;-68
2022/12/27 14:00:08;;;;;;;1.80;1.30;;;8.90;98.00;;;;;;5011911;28;20469;-68
2022/12/27 14:03:13;;;;;;;1.30;1.10;;;8.80;98.00;;;;;;5012852;28;20463;-69
2022/12/27 14:06:12;;;;;;;1.30;1.20;;;8.70;98.00;;;;;;5014339;28;20492;-69
2022/12/27 14:09:13;;;;;;;4.10;1.50;;;8.70;98.00;;;;;;5012746;28;20458;-68
2022/12/27 14:11:58;;;;;;;1.30;1.10;;;8.90;98.00;;;;;;5000676;28;20465;-69
2022/12/27 14:14:28;;;;;;;1.63;1.37;;;8.80;98.00;;;;;;4995563;28;20455;-68
2022/12/27 14:17:20;;;;;;;1.43;1.07;;;8.80;98.00;;;;;;5012793;28;20459;-69
2022/12/27 14:20:08;;;;;;;4.40;2.07;;;8.90;98.00;;;;;;5012064;28;20463;-68
2022/12/27 14:22:57;;;;;;;1.33;1.20;;;9.00;98.00;;;;;;5008735;28;20452;-69
2022/12/27 14:25:51;;;;;;;1.20;1.10;;;9.10;98.00;;;;;;5012229;28;20455;-69
2022/12/27 14:28:55;;;;;;;1.90;1.40;;;9.10;98.00;;;;;;5012610;28;20553;-70
2022/12/27 14:31:59;;;;;;;1.40;1.30;;;8.90;98.00;;;;;;5012036;28;20474;-70
2022/12/27 14:35:07;;;;;;;2.10;1.43;;;8.80;98.00;;;;;;4991599;28;20488;-69
2022/12/27 14:38:08;;;;;;;1.40;1.20;;;8.70;98.00;;;;;;5012017;28;20557;-69
2022/12/27 14:41:06;;;;;;;1.60;1.30;;;8.70;98.00;;;;;;5010429;28;20459;-72
2022/12/27 14:44:09;;;;;;;1.70;1.23;;;8.70;98.00;;;;;;5012266;28;20459;-70
2022/12/27 14:47:05;;;;;;;1.60;1.20;;;8.70;98.00;;;;;;5010120;28;20572;-69
2022/12/27 14:50:07;;;;;;;2.10;1.47;;;8.80;98.00;;;;;;5012074;28;20487;-69
2022/12/27 14:53:05;;;;;;;1.30;1.10;;;8.80;98.00;;;;;;5012326;28;20504;-69
2022/12/27 14:55:44;;;;;;;1.20;1.20;;;8.70;98.00;;;;;;5012196;28;20966;-69
2022/12/27 14:58:34;;;;;;;1.40;1.40;;;8.70;98.00;;;;;;5012482;28;20503;-70
2022/12/27 15:01:10;;;;;;;2.00;1.30;;;8.60;98.00;;;;;;5012325;28;20465;-70
2022/12/27 15:03:58;;;;;;;1.80;1.30;;;8.50;98.00;;;;;;5012416;28;20466;-69
2022/12/27 15:06:58;;;;;;;2.27;1.50;;;8.40;98.00;;;;;;5012440;28;20563;-70
2022/12/27 15:09:35;;;;;;;1.70;1.20;;;8.30;98.00;;;;;;5010242;28;20464;-70
2022/12/27 15:12:14;;;;;;;1.30;1.10;;;8.30;98.00;;;;;;5012004;28;20466;-70
2022/12/27 15:15:00;;;;;;;1.60;1.37;;;8.30;98.00;;;;;;5012239;28;20488;-69
2022/12/27 15:17:44;;;;;;;5.67;1.40;;;8.30;98.00;;;;;;5011894;28;20457;-69